Time;durP1;ratioP1;P1;durP2;ratioP2;P2;SDS_P1;SDS_P2;PMS_P1;PMS_P2;Temp;Humidity;BMP_temperature;BMP_pressure;BME280_temperature;BME280_humidity;BME280_pressure;Samples;Min_cycle;Max_cycle;Signal;HPM_P1;HPM_P2
2021/06/30 09:23:04;;;;;;;7.25;4.80;;;;;;;29.87;56.24;100863.06;1797957;79;22670;-55
2021/06/30 09:25:41;;;;;;;6.17;5.25;;;;;;;29.81;56.03;100857.64;1753110;81;20922;-55
2021/06/30 09:28:22;;;;;;;7.62;5.55;;;;;;;29.73;56.20;100854.76;1756663;81;21913;-55
2021/06/30 09:31:05;;;;;;;7.87;5.17;;;;;;;29.65;56.46;100852.72;1759093;81;21483;-55
2021/06/30 09:33:50;;;;;;;6.03;4.75;;;;;;;29.57;56.67;100848.45;1752531;81;20944;-54
2021/06/30 09:36:16;;;;;;;8.03;4.62;;;;;;;29.47;56.81;100849.77;1752270;81;21046;-55
2021/06/30 09:38:44;;;;;;;8.48;4.65;;;;;;;29.40;57.04;100844.50;1756455;81;21073;-54
2021/06/30 09:41:27;;;;;;;7.08;4.90;;;;;;;29.35;57.20;100832.71;1739076;81;21934;-54
2021/06/30 09:44:11;;;;;;;8.73;6.15;;;;;;;29.32;57.34;100839.75;1748082;81;20974;-54
2021/06/30 09:46:40;;;;;;;8.08;6.42;;;;;;;29.29;57.47;100834.09;1756596;81;21004;-55
2021/06/30 09:49:10;;;;;;;11.35;6.22;;;;;;;29.28;57.54;100832.87;1755229;81;21059;-55
2021/06/30 09:51:37;;;;;;;9.35;4.90;;;;;;;29.26;57.59;100830.29;1752643;81;22264;-55
2021/06/30 09:54:09;;;;;;;6.65;5.60;;;;;;;29.27;57.61;100824.36;1756806;81;21131;-55
2021/06/30 09:56:40;;;;;;;5.78;5.10;;;;;;;29.28;57.65;100817.45;1723328;83;20993;-54
2021/06/30 09:59:16;;;;;;;;;;;;;;;29.28;57.50;100823.38;1721504;83;21045;-54
2021/06/30 10:01:44;;;;;;;5.85;4.70;;;;;;;29.30;57.40;100817.32;1695651;83;20201;-54
2021/06/30 10:04:23;;;;;;;6.70;5.05;;;;;;;29.30;57.13;100813.26;1703422;83;21112;-54
2021/06/30 10:06:50;;;;;;;7.60;5.03;;;;;;;29.30;56.97;100809.19;1708667;83;21131;-54
2021/06/30 10:09:16;;;;;;;6.55;5.37;;;;;;;29.33;56.87;100804.01;1673733;84;21570;-54
2021/06/30 10:11:46;;;;;;;10.10;5.90;;;;;;;29.34;56.76;100809.80;1709296;83;21073;-54
2021/06/30 10:14:14;;;;;;;8.88;5.30;;;;;;;29.34;56.76;100813.36;1648376;84;21069;-54
2021/06/30 10:16:40;;;;;;;11.12;7.22;;;;;;;29.35;56.60;100811.50;1721904;83;21415;-54
2021/06/30 10:19:08;;;;;;;6.65;6.05;;;;;;;29.34;56.49;100817.94;1720988;83;21127;-54
2021/06/30 10:21:35;;;;;;;7.55;5.42;;;;;;;29.33;56.54;100813.50;1718544;83;21061;-55
2021/06/30 10:24:02;;;;;;;9.45;4.85;;;;;;;29.33;56.68;100804.01;1708361;83;21105;-54
2021/06/30 10:26:28;;;;;;;8.50;5.55;;;;;;;29.32;56.79;100800.92;1708409;83;21053;-55
2021/06/30 10:28:59;;;;;;;9.05;5.53;;;;;;;29.32;56.89;100791.44;1706393;83;21128;-54
2021/06/30 10:31:25;;;;;;;8.90;5.00;;;;;;;29.33;57.31;100787.75;1701648;83;21120;-55
2021/06/30 10:34:10;;;;;;;7.45;5.45;;;;;;;29.35;57.53;100789.81;1678531;84;21069;-54
2021/06/30 10:36:55;;;;;;;9.98;5.10;;;;;;;29.36;57.35;100789.68;1705047;83;21042;-55
2021/06/30 10:39:42;;;;;;;9.48;5.03;;;;;;;29.39;57.11;100780.43;1706663;83;21138;-54
2021/06/30 10:42:36;;;;;;;7.22;5.00;;;;;;;29.42;56.90;100778.30;1707259;83;21058;-53
2021/06/30 10:45:21;;;;;;;6.87;4.97;;;;;;;29.45;56.59;100773.99;1703740;83;21097;-53
2021/06/30 10:48:10;;;;;;;9.68;5.00;;;;;;;29.47;56.25;100779.28;1702320;83;21102;-55
2021/06/30 10:50:43;;;;;;;7.95;4.75;;;;;;;29.47;55.95;100780.13;1677682;85;21042;-55
2021/06/30 10:53:25;;;;;;;6.37;5.03;;;;;;;29.45;55.82;100788.02;1677648;85;21110;-66
2021/06/30 10:55:51;;;;;;;8.20;5.62;;;;;;;29.43;55.72;100798.16;1676852;85;21075;-61
2021/06/30 10:58:24;;;;;;;13.03;5.60;;;;;;;29.42;55.90;100793.20;1678646;85;21809;-55
2021/06/30 11:01:02;;;;;;;8.28;5.72;;;;;;;29.42;55.86;100805.41;1678694;85;21062;-55
2021/06/30 11:03:38;;;;;;;6.05;4.75;;;;;;;29.40;55.76;100803.34;1678589;85;21498;-56
2021/06/30 11:06:24;;;;;;;7.58;4.25;;;;;;;29.38;55.92;100799.03;1692817;83;21042;-54
2021/06/30 11:09:09;;;;;;;9.35;5.30;;;;;;;29.37;56.11;100771.59;1715107;83;21014;-54
2021/06/30 11:11:46;;;;;;;7.60;5.05;;;;;;;29.34;56.29;100777.28;1715087;83;21144;-54
2021/06/30 11:14:17;;;;;;;10.68;4.33;;;;;;;29.30;56.59;100792.93;1715069;83;21046;-54
2021/06/30 11:16:50;;;;;;;6.53;4.45;;;;;;;29.28;56.79;100796.28;1715307;83;21510;-54
2021/06/30 11:19:24;;;;;;;7.53;4.83;;;;;;;29.27;56.88;100806.75;1720238;82;21052;-54
2021/06/30 11:22:04;;;;;;;6.65;4.40;;;;;;;29.25;57.01;100823.66;1716018;82;21029;-54
2021/06/30 11:24:43;;;;;;;6.37;4.22;;;;;;;29.22;57.24;100848.31;1715040;83;21138;-54
2021/06/30 11:27:24;;;;;;;9.15;4.60;;;;;;;29.19;57.40;100863.44;1714668;83;21033;-54
2021/06/30 11:30:01;;;;;;;8.50;4.75;;;;;;;29.17;57.55;100879.80;1715086;83;21010;-54
2021/06/30 11:32:39;;;;;;;7.92;5.53;;;;;;;29.16;57.68;100871.80;1715301;83;20998;-54
2021/06/30 11:35:22;;;;;;;7.83;5.78;;;;;;;29.15;57.88;100867.40;1714881;83;20994;-54
2021/06/30 11:38:04;;;;;;;10.18;5.12;;;;;;;29.13;57.99;100852.12;1750844;81;21035;-60
2021/06/30 11:40:43;;;;;;;7.20;5.85;;;;;;;29.16;58.15;100840.64;1749641;81;21042;-60
2021/06/30 11:43:01;;;;;;;7.85;5.97;;;;;;;29.17;58.23;100828.31;1746888;81;21538;-60
2021/06/30 11:45:32;;;;;;;11.28;6.80;;;;;;;29.21;58.17;100831.16;1714892;83;21497;-62
2021/06/30 11:48:01;;;;;;;;;;;;;;;29.26;58.03;100833.48;1725657;81;21030;-62
2021/06/30 11:50:52;;;;;;;7.80;5.95;;;;;;;29.32;58.04;100826.20;1720207;83;21120;-61
2021/06/30 11:53:40;;;;;;;7.97;5.97;;;;;;;29.37;57.88;100828.00;1749778;82;21038;-62
2021/06/30 11:56:09;;;;;;;8.38;6.17;;;;;;;29.44;57.80;100825.63;1750700;82;21042;-62
2021/06/30 11:58:47;;;;;;;11.20;6.55;;;;;;;29.50;57.66;100826.92;1751270;82;21058;-60
2021/06/30 12:01:21;;;;;;;10.00;6.45;;;;;;;29.53;57.40;100833.44;1750973;82;21089;-64
2021/06/30 12:03:49;;;;;;;10.15;6.03;;;;;;;29.53;57.32;100832.96;1751130;82;21103;-64
2021/06/30 12:06:27;;;;;;;8.43;6.70;;;;;;;29.56;57.41;100827.27;1750258;81;21042;-63
2021/06/30 12:09:23;;;;;;;6.28;5.67;;;;;;;29.55;57.45;100821.47;1748679;82;21034;-58
2021/06/30 12:12:02;;;;;;;7.58;6.20;;;;;;;29.57;57.67;100829.47;1726385;82;21025;-56
2021/06/30 12:14:32;;;;;;;8.68;6.47;;;;;;;29.57;57.67;100822.22;1708213;83;21021;-57
2021/06/30 12:17:05;;;;;;;6.83;5.40;;;;;;;29.56;57.53;100820.48;1708275;83;20991;-59
2021/06/30 12:19:45;;;;;;;11.28;6.15;;;;;;;29.51;57.35;100820.02;1704625;83;21034;-57
2021/06/30 12:22:19;;;;;;;8.55;6.03;;;;;;;29.46;57.38;100819.57;1705437;83;21098;-58
2021/06/30 12:24:48;;;;;;;11.38;6.40;;;;;;;29.41;57.49;100821.33;1699557;83;21034;-58
2021/06/30 12:27:15;;;;;;;9.05;6.75;;;;;;;29.37;57.65;100819.87;1702807;83;21057;-58
2021/06/30 12:29:42;;;;;;;9.33;5.58;;;;;;;29.37;57.87;100816.31;1672745;85;21121;-59
2021/06/30 12:32:14;;;;;;;10.53;6.05;;;;;;;29.36;58.00;100820.85;1673770;85;21052;-59
2021/06/30 12:34:43;;;;;;;11.65;6.00;;;;;;;29.37;58.12;100826.64;1744246;81;21061;-58
2021/06/30 12:37:21;;;;;;;8.88;5.10;;;;;;;29.37;58.28;100826.64;1745887;81;21534;-58
2021/06/30 12:40:10;;;;;;;6.12;4.78;;;;;;;29.39;58.32;100822.45;1675470;85;21055;-57
2021/06/30 12:42:54;;;;;;;8.38;5.25;;;;;;;29.40;57.99;100824.17;1745550;81;21105;-58
2021/06/30 12:45:38;;;;;;;7.70;4.92;;;;;;;29.39;57.85;100827.87;1746586;81;21043;-57
2021/06/30 12:48:09;;;;;;;10.38;6.05;;;;;;;29.39;57.78;100830.58;1675550;85;21053;-58
2021/06/30 12:50:42;;;;;;;8.43;5.20;;;;;;;29.37;57.64;100836.64;1742292;81;21056;-60
2021/06/30 12:53:13;;;;;;;10.68;7.35;;;;;;;29.37;57.52;100833.93;1682056;83;21009;-58
2021/06/30 12:56:14;;;;;;;11.83;9.60;;;;;;;29.35;57.46;100827.77;1682666;85;21027;-58
2021/06/30 12:58:47;;;;;;;11.03;8.28;;;;;;;29.32;57.37;100815.36;1665160;85;21067;-57
2021/06/30 13:01:17;;;;;;;11.85;7.25;;;;;;;29.29;57.40;100814.23;1735957;82;21001;-56
2021/06/30 13:03:52;;;;;;;10.63;6.80;;;;;;;29.27;57.53;100823.01;1687690;85;21071;-57
2021/06/30 13:06:23;;;;;;;9.13;6.22;;;;;;;29.25;57.65;100825.85;1688935;85;21089;-57
2021/06/30 13:09:05;;;;;;;9.80;6.58;;;;;;;29.25;57.69;100823.66;1688461;85;21154;-57
2021/06/30 13:11:51;;;;;;;7.95;6.08;;;;;;;29.23;57.72;100818.36;1736385;82;21037;-57
2021/06/30 13:14:25;;;;;;;8.95;5.90;;;;;;;29.21;57.87;100797.29;1736189;82;21084;-57
2021/06/30 13:17:10;;;;;;;8.93;5.45;;;;;;;29.21;57.79;100790.52;1686739;85;21052;-57
2021/06/30 13:19:49;;;;;;;8.15;5.50;;;;;;;29.20;57.59;100785.20;1688622;85;21073;-57
2021/06/30 13:22:26;;;;;;;9.28;5.65;;;;;;;29.17;57.43;100780.89;1675065;85;21138;-58
2021/06/30 13:24:53;;;;;;;6.03;5.30;;;;;;;29.16;57.53;100783.73;1712886;82;21039;-57
2021/06/30 13:36:09;;;;;;;8.13;5.15;;;;;;;29.17;57.79;100771.41;1713349;82;21144;-57
2021/06/30 13:38:43;;;;;;;8.15;5.33;;;;;;;29.18;58.02;100773.14;1724563;81;21016;-56
2021/06/30 13:41:17;;;;;;;9.20;5.45;;;;;;;29.18;58.01;100769.58;1739753;82;21054;-59
2021/06/30 13:43:48;;;;;;;10.00;5.40;;;;;;;29.20;58.31;100780.66;1742574;81;21028;-57
2021/06/30 13:46:19;;;;;;;6.62;5.40;;;;;;;29.22;58.24;100790.04;1734322;81;21018;-57
2021/06/30 13:48:48;;;;;;;9.20;5.20;;;;;;;29.24;58.33;100800.23;1742967;81;21123;-58
2021/06/30 13:51:16;;;;;;;10.98;5.20;;;;;;;29.25;58.37;100798.75;1740042;81;21091;-63
2021/06/30 13:53:44;;;;;;;12.88;5.85;;;;;;;29.27;58.42;100795.91;1741123;81;21091;-63
2021/06/30 13:56:13;;;;;;;8.03;6.28;;;;;;;29.28;58.39;100793.06;1702572;84;21316;-59
2021/06/30 13:58:44;;;;;;;9.65;5.28;;;;;;;29.30;58.45;100802.41;1705703;83;21754;-58
2021/06/30 14:01:11;;;;;;;8.05;5.00;;;;;;;29.30;58.33;100817.32;1706916;83;21104;-60
2021/06/30 14:03:38;;;;;;;9.13;5.75;;;;;;;29.30;58.29;100822.23;1706416;83;21042;-62
2021/06/30 14:06:06;;;;;;;7.47;6.30;;;;;;;29.29;58.17;100814.23;1707471;83;21058;-58
2021/06/30 14:08:33;;;;;;;11.15;8.08;;;;;;;29.27;57.96;100805.39;1703414;83;21537;-59
2021/06/30 14:11:01;;;;;;;8.35;6.33;;;;;;;29.25;57.85;100808.23;1704333;84;21352;-60
2021/06/30 14:13:29;;;;;;;6.55;5.95;;;;;;;29.24;57.89;100808.38;1742316;81;21837;-58
2021/06/30 14:15:57;;;;;;;12.68;5.78;;;;;;;29.23;57.99;100791.27;1743631;81;21005;-58
2021/06/30 14:18:24;;;;;;;7.58;5.67;;;;;;;29.24;58.03;100790.75;1742730;82;21415;-57
2021/06/30 14:20:51;;;;;;;12.45;6.55;;;;;;;29.22;58.13;100791.39;1742745;81;21025;-56
2021/06/30 14:23:24;;;;;;;11.78;5.80;;;;;;;29.20;58.43;100790.14;1743788;81;21488;-56
2021/06/30 14:25:50;;;;;;;12.40;5.90;;;;;;;29.20;58.72;100788.78;1755977;81;21475;-58
